Time;durP1;ratioP1;P1;durP2;ratioP2;P2;SDS_P1;SDS_P2;PMS_P1;PMS_P2;Temp;Humidity;BMP_temperature;BMP_pressure;BME280_temperature;BME280_humidity;BME280_pressure;Samples;Min_cycle;Max_cycle;Signal;HPM_P1;HPM_P2
2023/07/05 00:02:10;;;;;;;9.70;4.38;;;;;;;;;;5050138;28;21764;-65
2023/07/05 00:04:37;;;;;;;6.72;3.83;;;;;;;;;;5050373;28;20040;-66
2023/07/05 00:07:04;;;;;;;8.38;3.80;;;;;;;;;;5048025;28;20047;-65
2023/07/05 00:09:30;;;;;;;8.55;4.40;;;;;;;;;;5050364;28;20037;-67
2023/07/05 00:11:58;;;;;;;8.57;4.13;;;;;;;;;;5052295;28;20037;-67
2023/07/05 00:14:25;;;;;;;9.80;4.85;;;;;;;;;;5046487;28;20044;-65
2023/07/05 00:16:52;;;;;;;8.57;4.43;;;;;;;;;;5049159;28;20048;-67
2023/07/05 00:19:18;;;;;;;9.45;4.18;;;;;;;;;;5050944;28;20136;-65
2023/07/05 00:21:45;;;;;;;8.52;3.92;;;;;;;;;;5051103;28;20139;-66
2023/07/05 00:24:12;;;;;;;8.10;4.18;;;;;;;;;;5051450;28;20052;-67
2023/07/05 00:26:38;;;;;;;8.15;4.35;;;;;;;;;;5061954;28;20037;-66
2023/07/05 00:29:05;;;;;;;9.05;4.45;;;;;;;;;;5049336;28;20493;-66
2023/07/05 00:31:32;;;;;;;11.80;3.88;;;;;;;;;;5051257;28;20087;-63
2023/07/05 00:33:59;;;;;;;11.98;4.72;;;;;;;;;;5052765;28;20053;-64
2023/07/05 00:36:25;;;;;;;8.73;3.92;;;;;;;;;;5054062;28;20504;-63
2023/07/05 00:38:53;;;;;;;7.43;3.55;;;;;;;;;;5052580;28;20083;-64
2023/07/05 00:41:20;;;;;;;7.05;3.78;;;;;;;;;;5052103;28;20124;-62
2023/07/05 00:43:48;;;;;;;6.93;3.20;;;;;;;;;;5050916;28;20041;-66
2023/07/05 00:46:20;;;;;;;10.70;4.20;;;;;;;;;;5052696;28;20035;-63
2023/07/05 00:48:51;;;;;;;10.35;3.67;;;;;;;;;;5051951;28;20096;-63
2023/07/05 00:51:20;;;;;;;11.68;4.28;;;;;;;;;;5052185;28;20041;-61
2023/07/05 00:53:47;;;;;;;13.02;4.68;;;;;;;;;;5044288;28;20045;-62
2023/07/05 00:56:18;;;;;;;11.55;4.40;;;;;;;;;;5032342;28;20390;-61
2023/07/05 00:58:45;;;;;;;7.85;4.00;;;;;;;;;;5032212;28;20383;-62
2023/07/05 01:01:12;;;;;;;9.75;4.22;;;;;;;;;;5032486;28;20052;-64
2023/07/05 01:03:40;;;;;;;7.55;3.97;;;;;;;;;;5046164;28;20040;-64
2023/07/05 01:06:08;;;;;;;8.02;3.97;;;;;;;;;;5036746;28;20090;-64
2023/07/05 01:08:34;;;;;;;9.55;4.40;;;;;;;;;;5030364;28;20067;-64
2023/07/05 01:11:15;;;;;;;11.93;4.07;;;;;;;;;;5030260;28;20095;-63
2023/07/05 01:13:46;;;;;;;9.45;4.30;;;;;;;;;;5029449;28;20293;-64
2023/07/05 01:16:18;;;;;;;11.85;5.38;;;;;;;;;;5029986;28;20045;-62
2023/07/05 01:18:53;;;;;;;9.43;4.28;;;;;;;;;;5042661;28;20049;-62
2023/07/05 01:21:29;;;;;;;8.35;4.03;;;;;;;;;;5027929;28;20565;-64
2023/07/05 01:24:24;;;;;;;9.80;4.38;;;;;;;;;;5029617;28;20058;-62
2023/07/05 01:26:55;;;;;;;7.88;3.65;;;;;;;;;;5029161;28;20029;-64
2023/07/05 01:29:35;;;;;;;11.52;4.22;;;;;;;;;;5028577;28;20045;-64
2023/07/05 01:32:09;;;;;;;8.82;3.95;;;;;;;;;;5027112;28;20087;-67
2023/07/05 01:34:39;;;;;;;11.02;4.30;;;;;;;;;;5027662;28;20111;-64
2023/07/05 01:37:09;;;;;;;10.40;3.97;;;;;;;;;;5030227;28;20041;-63
2023/07/05 01:39:36;;;;;;;9.45;4.35;;;;;;;;;;5023409;28;20048;-64
2023/07/05 01:42:04;;;;;;;10.05;4.38;;;;;;;;;;5034347;28;21029;-66
2023/07/05 01:44:31;;;;;;;11.95;4.57;;;;;;;;;;5025144;28;22799;-64
2023/07/05 01:47:02;;;;;;;9.10;4.00;;;;;;;;;;5029724;28;20049;-65
2023/07/05 01:49:38;;;;;;;11.77;4.72;;;;;;;;;;5023547;28;20041;-65
2023/07/05 01:52:29;;;;;;;9.50;4.32;;;;;;;;;;5043389;28;20044;-65
2023/07/05 01:54:58;;;;;;;9.73;4.32;;;;;;;;;;5043958;28;21975;-66
2023/07/05 01:57:33;;;;;;;8.90;4.18;;;;;;;;;;5019948;28;20040;-66
2023/07/05 02:00:07;;;;;;;10.57;4.38;;;;;;;;;;5043828;28;20083;-65
2023/07/05 02:02:42;;;;;;;9.07;4.53;;;;;;;;;;5039474;28;20942;-63
2023/07/05 02:05:09;;;;;;;8.57;4.53;;;;;;;;;;5042882;28;20612;-66
2023/07/05 02:07:37;;;;;;;7.93;4.15;;;;;;;;;;5040570;28;21505;-64
2023/07/05 02:10:04;;;;;;;10.27;4.85;;;;;;;;;;5042728;28;20500;-64
2023/07/05 02:12:30;;;;;;;8.57;4.13;;;;;;;;;;5025057;28;20040;-63
2023/07/05 02:14:57;;;;;;;8.73;4.68;;;;;;;;;;5041513;28;20098;-65
2023/07/05 02:17:24;;;;;;;9.95;4.90;;;;;;;;;;5034452;28;20510;-65
2023/07/05 02:19:50;;;;;;;7.68;4.05;;;;;;;;;;5044250;28;20881;-64
2023/07/05 02:22:19;;;;;;;7.00;3.85;;;;;;;;;;5034825;28;20029;-65
2023/07/05 02:25:04;;;;;;;7.63;4.18;;;;;;;;;;5026868;28;20713;-66
2023/07/05 02:27:32;;;;;;;11.85;4.78;;;;;;;;;;5015261;28;20045;-66
2023/07/05 02:29:59;;;;;;;8.73;4.78;;;;;;;;;;5024744;28;20037;-64
2023/07/05 02:32:25;;;;;;;8.20;4.97;;;;;;;;;;5025032;28;20053;-64
2023/07/05 02:34:52;;;;;;;10.35;4.90;;;;;;;;;;5015118;28;20062;-63
2023/07/05 02:37:19;;;;;;;9.23;3.92;;;;;;;;;;5025658;28;22137;-66
2023/07/05 02:39:52;;;;;;;7.03;3.97;;;;;;;;;;5024859;28;20053;-63
2023/07/05 02:42:19;;;;;;;7.45;3.30;;;;;;;;;;5009134;28;20176;-63
2023/07/05 02:44:49;;;;;;;7.47;3.45;;;;;;;;;;5024452;28;20025;-64
2023/07/05 02:47:18;;;;;;;7.55;3.60;;;;;;;;;;5027750;28;20047;-65
2023/07/05 02:49:45;;;;;;;6.80;3.03;;;;;;;;;;5025413;28;20678;-62
2023/07/05 02:52:11;;;;;;;6.35;3.13;;;;;;;;;;5025098;28;20044;-63
2023/07/05 02:54:38;;;;;;;6.78;3.25;;;;;;;;;;5026016;28;20052;-65
2023/07/05 02:57:05;;;;;;;6.43;3.50;;;;;;;;;;5025301;28;20061;-63
2023/07/05 02:59:31;;;;;;;9.52;3.70;;;;;;;;;;5026007;28;20092;-63
2023/07/05 03:01:58;;;;;;;7.07;3.05;;;;;;;;;;5026435;28;20404;-65
2023/07/05 03:04:25;;;;;;;6.22;3.05;;;;;;;;;;5036226;28;20425;-61
2023/07/05 03:06:52;;;;;;;7.78;3.33;;;;;;;;;;5026455;28;20094;-64
2023/07/05 03:09:18;;;;;;;7.65;3.55;;;;;;;;;;5027400;28;20088;-65
2023/07/05 03:11:48;;;;;;;6.88;3.40;;;;;;;;;;5030222;28;20842;-65
2023/07/05 03:14:15;;;;;;;7.75;4.07;;;;;;;;;;5032287;28;20041;-63
2023/07/05 03:16:41;;;;;;;7.15;3.50;;;;;;;;;;5033054;28;20041;-64
2023/07/05 03:19:08;;;;;;;7.15;3.38;;;;;;;;;;5028954;28;20052;-63
2023/07/05 03:21:34;;;;;;;6.78;3.20;;;;;;;;;;5026389;28;20037;-63
2023/07/05 03:24:01;;;;;;;6.25;3.28;;;;;;;;;;5026131;28;20133;-63
2023/07/05 03:26:28;;;;;;;5.72;3.08;;;;;;;;;;5025751;28;20580;-65
2023/07/05 03:28:54;;;;;;;7.47;3.22;;;;;;;;;;5044502;28;20086;-63
2023/07/05 03:31:21;;;;;;;6.25;2.78;;;;;;;;;;5045173;28;20037;-64
2023/07/05 03:33:48;;;;;;;7.22;3.15;;;;;;;;;;5042278;28;20041;-65
2023/07/05 03:36:17;;;;;;;6.80;3.13;;;;;;;;;;5044353;28;20127;-62
2023/07/05 03:38:44;;;;;;;7.25;3.42;;;;;;;;;;5043630;28;20706;-63
2023/07/05 03:41:16;;;;;;;8.48;3.65;;;;;;;;;;5042935;28;20268;-62
2023/07/05 03:43:43;;;;;;;6.40;3.27;;;;;;;;;;5041166;28;21978;-63
2023/07/05 03:46:14;;;;;;;9.82;3.95;;;;;;;;;;5044608;28;21316;-63
2023/07/05 03:48:42;;;;;;;7.25;3.83;;;;;;;;;;5040148;28;20052;-61
2023/07/05 03:51:12;;;;;;;7.10;3.83;;;;;;;;;;5042668;28;20076;-64
2023/07/05 03:53:40;;;;;;;7.97;3.50;;;;;;;;;;5042001;28;20067;-64
2023/07/05 03:56:08;;;;;;;6.20;3.20;;;;;;;;;;5041158;28;20098;-63
2023/07/05 03:58:35;;;;;;;7.93;3.50;;;;;;;;;;5042244;28;22127;-62
2023/07/05 04:01:03;;;;;;;7.10;3.55;;;;;;;;;;5026440;28;20049;-63
2023/07/05 04:03:30;;;;;;;6.13;2.85;;;;;;;;;;5022791;28;20033;-63
2023/07/05 04:05:57;;;;;;;6.85;2.95;;;;;;;;;;5028983;28;20531;-64
2023/07/05 04:08:24;;;;;;;7.15;3.17;;;;;;;;;;5041299;28;20047;-65
2023/07/05 04:10:50;;;;;;;6.88;3.10;;;;;;;;;;5028823;28;20703;-64
2023/07/05 04:13:17;;;;;;;6.80;3.00;;;;;;;;;;5026310;28;20045;-63
2023/07/05 04:15:43;;;;;;;5.45;2.92;;;;;;;;;;5026657;28;20473;-63
2023/07/05 04:18:10;;;;;;;6.82;2.80;;;;;;;;;;5026103;28;20117;-64
2023/07/05 04:20:37;;;;;;;6.50;2.97;;;;;;;;;;5026361;28;20473;-63
2023/07/05 04:23:04;;;;;;;6.80;3.10;;;;;;;;;;5026473;28;20814;-64
2023/07/05 04:25:31;;;;;;;5.25;2.60;;;;;;;;;;5024861;28;21268;-64
2023/07/05 04:27:58;;;;;;;6.70;2.95;;;;;;;;;;5039524;28;20508;-64
2023/07/05 04:30:24;;;;;;;7.25;3.17;;;;;;;;;;5025098;28;20049;-64
2023/07/05 04:32:51;;;;;;;8.73;3.38;;;;;;;;;;5025856;28;20142;-63
2023/07/05 04:35:19;;;;;;;5.97;3.10;;;;;;;;;;5025991;28;20124;-63
2023/07/05 04:37:45;;;;;;;6.30;2.92;;;;;;;;;;5022676;28;20036;-67
2023/07/05 04:40:12;;;;;;;7.82;3.63;;;;;;;;;;5027410;28;20114;-65
2023/07/05 04:42:39;;;;;;;8.50;3.90;;;;;;;;;;5025577;28;20061;-65
2023/07/05 04:45:05;;;;;;;7.25;3.55;;;;;;;;;;5027067;28;20624;-64
2023/07/05 04:47:33;;;;;;;7.65;3.78;;;;;;;;;;5026805;28;20243;-63
2023/07/05 04:50:00;;;;;;;6.82;3.45;;;;;;;;;;5030308;28;20044;-64
2023/07/05 04:52:27;;;;;;;7.55;3.30;;;;;;;;;;5027544;28;20045;-63
2023/07/05 04:54:56;;;;;;;6.03;3.03;;;;;;;;;;5028310;28;20033;-63
2023/07/05 04:57:23;;;;;;;6.28;3.17;;;;;;;;;;5032159;28;20997;-65
2023/07/05 04:59:51;;;;;;;6.30;3.25;;;;;;;;;;5027284;28;20144;-64
2023/07/05 05:02:18;;;;;;;9.75;3.42;;;;;;;;;;5027922;28;20795;-65
2023/07/05 05:04:45;;;;;;;6.63;3.50;;;;;;;;;;5025385;28;21349;-64
2023/07/05 05:07:13;;;;;;;6.90;3.17;;;;;;;;;;5029006;28;20037;-64
2023/07/05 05:09:40;;;;;;;6.60;3.80;;;;;;;;;;5028852;28;20051;-65
2023/07/05 05:12:08;;;;;;;6.00;3.08;;;;;;;;;;5022263;28;20063;-65
2023/07/05 05:14:34;;;;;;;8.25;3.42;;;;;;;;;;5029590;28;20037;-63
2023/07/05 05:17:01;;;;;;;7.13;3.75;;;;;;;;;;5029556;28;20037;-64
2023/07/05 05:19:28;;;;;;;7.90;3.92;;;;;;;;;;5028268;28;20146;-64
2023/07/05 05:21:54;;;;;;;8.32;3.90;;;;;;;;;;5028578;28;20124;-66
2023/07/05 05:24:21;;;;;;;7.53;4.00;;;;;;;;;;5044409;28;20053;-65
2023/07/05 05:26:48;;;;;;;8.63;4.00;;;;;;;;;;5028782;28;20528;-65
2023/07/05 05:29:14;;;;;;;10.05;4.53;;;;;;;;;;5042721;28;20029;-65
2023/07/05 05:31:41;;;;;;;12.50;4.85;;;;;;;;;;5027126;28;20037;-65
2023/07/05 05:34:08;;;;;;;8.40;4.93;;;;;;;;;;5030494;28;20045;-66
2023/07/05 05:36:35;;;;;;;12.73;5.47;;;;;;;;;;5043179;28;20041;-65
2023/07/05 05:39:02;;;;;;;14.00;6.28;;;;;;;;;;5029786;28;20042;-65
2023/07/05 05:41:29;;;;;;;10.82;6.13;;;;;;;;;;5024255;28;20097;-66
2023/07/05 05:43:55;;;;;;;10.45;5.45;;;;;;;;;;5025320;28;20450;-65
2023/07/05 05:46:22;;;;;;;12.55;6.22;;;;;;;;;;5034751;28;20029;-64
2023/07/05 05:48:49;;;;;;;10.55;5.72;;;;;;;;;;5028994;28;20045;-64
2023/07/05 05:51:16;;;;;;;21.45;6.28;;;;;;;;;;5029035;28;21001;-64
2023/07/05 05:53:42;;;;;;;11.63;5.35;;;;;;;;;;5043398;28;20041;-64
2023/07/05 05:56:11;;;;;;;10.98;5.22;;;;;;;;;;5029485;28;20635;-65
2023/07/05 05:58:37;;;;;;;13.75;5.70;;;;;;;;;;5020618;28;20041;-66
2023/07/05 06:01:05;;;;;;;11.88;6.38;;;;;;;;;;5041839;28;20480;-65
2023/07/05 06:03:31;;;;;;;11.07;5.90;;;;;;;;;;5026907;28;20037;-63
2023/07/05 06:05:58;;;;;;;13.75;6.40;;;;;;;;;;5028628;28;20564;-66
2023/07/05 06:08:27;;;;;;;10.77;6.05;;;;;;;;;;5028505;28;20520;-64
2023/07/05 06:10:58;;;;;;;12.13;6.85;;;;;;;;;;5027746;28;20163;-65
2023/07/05 06:13:25;;;;;;;15.65;7.47;;;;;;;;;;5031136;28;20048;-65
2023/07/05 06:15:55;;;;;;;13.82;7.07;;;;;;;;;;5028992;28;20041;-64
2023/07/05 06:18:22;;;;;;;12.13;6.68;;;;;;;;;;5028944;28;20045;-65
2023/07/05 06:20:49;;;;;;;15.00;7.22;;;;;;;;;;5027497;28;20044;-65
2023/07/05 06:23:15;;;;;;;14.32;6.90;;;;;;;;;;5027372;28;20750;-66
2023/07/05 06:25:47;;;;;;;14.23;7.43;;;;;;;;;;5026241;28;20052;-65
2023/07/05 06:28:13;;;;;;;16.85;7.28;;;;;;;;;;5042393;28;20204;-64
2023/07/05 06:30:40;;;;;;;11.75;6.45;;;;;;;;;;5027618;28;20550;-64
2023/07/05 06:33:06;;;;;;;13.40;5.97;;;;;;;;;;5028296;28;20477;-65
2023/07/05 06:35:33;;;;;;;12.23;6.25;;;;;;;;;;5040092;28;20037;-64
2023/07/05 06:38:00;;;;;;;11.43;6.30;;;;;;;;;;5031894;28;20060;-65
2023/07/05 06:40:26;;;;;;;12.32;6.63;;;;;;;;;;5028637;28;20197;-66
2023/07/05 06:42:53;;;;;;;15.95;7.47;;;;;;;;;;5029076;28;20034;-63
2023/07/05 06:45:20;;;;;;;11.40;6.32;;;;;;;;;;5028504;28;20106;-64
2023/07/05 06:47:46;;;;;;;13.85;6.57;;;;;;;;;;5028158;28;20236;-65
2023/07/05 06:50:14;;;;;;;12.23;7.05;;;;;;;;;;5044630;28;20036;-63
2023/07/05 06:52:40;;;;;;;13.50;6.43;;;;;;;;;;5026139;28;20036;-64
2023/07/05 06:55:07;;;;;;;12.02;6.50;;;;;;;;;;5027115;28;20052;-65
2023/07/05 06:57:34;;;;;;;13.23;6.50;;;;;;;;;;5040815;28;20049;-65
2023/07/05 07:00:00;;;;;;;14.40;6.68;;;;;;;;;;5025136;28;20056;-67
2023/07/05 07:02:27;;;;;;;11.68;6.75;;;;;;;;;;5027260;28;20025;-64
2023/07/05 07:04:54;;;;;;;13.55;7.40;;;;;;;;;;5030306;28;20159;-65
2023/07/05 07:07:20;;;;;;;15.20;7.22;;;;;;;;;;5028772;28;20040;-64
2023/07/05 07:09:48;;;;;;;18.92;7.28;;;;;;;;;;5027686;28;20044;-65
2023/07/05 07:12:15;;;;;;;16.70;7.25;;;;;;;;;;5025479;28;20131;-65
2023/07/05 07:14:42;;;;;;;13.68;6.88;;;;;;;;;;5027734;28;20052;-65
2023/07/05 07:17:08;;;;;;;14.63;7.50;;;;;;;;;;5032438;28;20135;-64
2023/07/05 07:19:35;;;;;;;12.38;6.85;;;;;;;;;;5027923;28;20041;-68
2023/07/05 07:22:02;;;;;;;14.00;7.38;;;;;;;;;;5023394;28;20040;-65
2023/07/05 07:24:28;;;;;;;13.52;6.85;;;;;;;;;;5038224;28;20559;-65
2023/07/05 07:26:55;;;;;;;14.93;6.95;;;;;;;;;;5026739;28;20045;-66
2023/07/05 07:29:22;;;;;;;14.55;6.93;;;;;;;;;;5026978;28;20097;-66
2023/07/05 07:31:49;;;;;;;10.52;6.00;;;;;;;;;;5029425;28;20829;-65
2023/07/05 07:34:15;;;;;;;18.48;9.45;;;;;;;;;;5031121;28;20037;-68
2023/07/05 07:36:42;;;;;;;19.58;8.68;;;;;;;;;;5029763;28;20037;-65
2023/07/05 07:39:09;;;;;;;16.13;8.38;;;;;;;;;;5031210;28;20052;-65
2023/07/05 07:41:36;;;;;;;13.35;6.55;;;;;;;;;;5042093;28;20091;-66
2023/07/05 07:44:06;;;;;;;11.75;6.70;;;;;;;;;;5042993;28;20052;-65
2023/07/05 07:46:33;;;;;;;10.90;6.13;;;;;;;;;;5027338;28;20055;-65
2023/07/05 07:49:00;;;;;;;11.10;5.93;;;;;;;;;;5030099;28;20064;-63
2023/07/05 07:51:31;;;;;;;10.85;5.95;;;;;;;;;;5027930;28;20473;-63
2023/07/05 07:53:58;;;;;;;11.77;5.38;;;;;;;;;;5043032;28;20051;-65
2023/07/05 07:56:25;;;;;;;11.32;5.53;;;;;;;;;;5027425;28;20053;-65
2023/07/05 07:58:53;;;;;;;9.48;5.35;;;;;;;;;;5021407;28;20048;-66
2023/07/05 08:01:25;;;;;;;8.80;4.97;;;;;;;;;;5023729;28;20068;-66
2023/07/05 08:03:52;;;;;;;11.85;4.97;;;;;;;;;;5027349;28;20068;-65
2023/07/05 08:06:19;;;;;;;8.57;4.70;;;;;;;;;;5027290;28;20046;-65
2023/07/05 08:08:46;;;;;;;9.95;4.47;;;;;;;;;;5028011;28;20049;-66
2023/07/05 08:11:12;;;;;;;14.73;5.28;;;;;;;;;;5040503;28;20041;-66
2023/07/05 08:13:40;;;;;;;11.57;5.32;;;;;;;;;;5031776;28;20127;-66
2023/07/05 08:16:08;;;;;;;10.25;5.00;;;;;;;;;;5028960;28;20051;-65
2023/07/05 08:18:35;;;;;;;8.75;4.78;;;;;;;;;;5041818;28;20045;-64
2023/07/05 08:21:03;;;;;;;9.55;4.47;;;;;;;;;;5027797;28;20037;-64
2023/07/05 08:23:30;;;;;;;8.43;4.25;;;;;;;;;;5025914;28;20041;-65
2023/07/05 08:25:56;;;;;;;8.38;4.70;;;;;;;;;;5025176;28;20041;-65
2023/07/05 08:28:23;;;;;;;9.30;4.43;;;;;;;;;;5027675;28;20305;-71
2023/07/05 08:30:57;;;;;;;9.07;4.43;;;;;;;;;;5036050;28;20041;-65
2023/07/05 08:33:26;;;;;;;11.30;5.10;;;;;;;;;;5025332;28;20382;-66
2023/07/05 08:36:08;;;;;;;9.32;4.97;;;;;;;;;;5029741;28;20115;-68
2023/07/05 08:38:35;;;;;;;7.05;3.67;;;;;;;;;;5036485;28;20066;-65
2023/07/05 08:41:05;;;;;;;8.93;4.57;;;;;;;;;;5031519;28;22068;-66
2023/07/05 08:43:35;;;;;;;9.63;4.57;;;;;;;;;;5037556;28;20040;-65
2023/07/05 08:46:04;;;;;;;9.25;4.53;;;;;;;;;;5034446;28;20059;-65
2023/07/05 08:48:32;;;;;;;10.10;4.70;;;;;;;;;;5033628;28;20041;-64
2023/07/05 08:50:59;;;;;;;11.50;4.97;;;;;;;;;;5046464;28;20044;-68
2023/07/05 08:53:26;;;;;;;7.70;4.32;;;;;;;;;;5032399;28;20045;-65
2023/07/05 08:55:59;;;;;;;8.63;4.50;;;;;;;;;;5035212;28;20089;-64
2023/07/05 08:58:47;;;;;;;9.48;4.72;;;;;;;;;;5048342;28;20080;-65
2023/07/05 09:01:20;;;;;;;8.52;4.65;;;;;;;;;;5032628;28;20458;-66
2023/07/05 09:03:47;;;;;;;8.65;4.47;;;;;;;;;;5047153;28;20040;-65
2023/07/05 09:06:23;;;;;;;8.57;4.15;;;;;;;;;;5032728;28;20064;-65
2023/07/05 09:08:58;;;;;;;9.35;4.97;;;;;;;;;;5034062;28;20418;-64
2023/07/05 09:11:28;;;;;;;8.30;4.95;;;;;;;;;;5030963;28;20060;-65
2023/07/05 09:14:03;;;;;;;10.05;5.05;;;;;;;;;;5031138;28;20116;-64
2023/07/05 09:16:39;;;;;;;10.32;5.63;;;;;;;;;;5044725;28;20040;-64
2023/07/05 09:19:08;;;;;;;11.20;5.72;;;;;;;;;;5029523;28;20055;-65
2023/07/05 09:21:37;;;;;;;9.77;4.95;;;;;;;;;;5026770;28;20037;-66
2023/07/05 09:24:10;;;;;;;8.30;4.82;;;;;;;;;;5043976;28;20033;-66
2023/07/05 09:26:41;;;;;;;8.27;4.43;;;;;;;;;;5027464;28;20499;-66
2023/07/05 09:29:26;;;;;;;8.75;5.13;;;;;;;;;;5031515;28;20053;-64
2023/07/05 09:31:54;;;;;;;10.27;5.20;;;;;;;;;;5029643;28;20069;-65
2023/07/05 09:34:29;;;;;;;12.10;5.47;;;;;;;;;;5028141;28;20045;-65
2023/07/05 09:36:55;;;;;;;10.65;5.95;;;;;;;;;;5030292;28;20163;-65
2023/07/05 09:39:31;;;;;;;9.13;5.05;;;;;;;;;;5047649;28;20386;-64
2023/07/05 09:42:02;;;;;;;10.18;4.97;;;;;;;;;;5043413;28;20048;-66
2023/07/05 09:44:30;;;;;;;8.27;5.03;;;;;;;;;;5029068;28;20068;-66
2023/07/05 09:46:57;;;;;;;8.75;4.82;;;;;;;;;;5036105;28;20050;-66
2023/07/05 09:49:26;;;;;;;9.27;4.78;;;;;;;;;;5037607;28;20095;-66
2023/07/05 09:51:53;;;;;;;8.75;4.82;;;;;;;;;;5031658;28;20067;-67
2023/07/05 09:54:29;;;;;;;9.68;5.00;;;;;;;;;;5032720;28;20546;-66
2023/07/05 09:56:58;;;;;;;12.20;5.25;;;;;;;;;;5032546;28;20029;-67
2023/07/05 09:59:25;;;;;;;8.52;5.32;;;;;;;;;;5034080;28;20047;-66
2023/07/05 10:01:57;;;;;;;10.27;5.28;;;;;;;;;;5032271;28;20037;-67
2023/07/05 10:04:27;;;;;;;10.32;5.70;;;;;;;;;;5043858;28;20033;-66
2023/07/05 10:06:54;;;;;;;11.38;5.15;;;;;;;;;;5032463;28;20040;-66
2023/07/05 10:09:23;;;;;;;9.38;5.47;;;;;;;;;;5030083;28;20401;-66
2023/07/05 10:11:53;;;;;;;10.65;5.43;;;;;;;;;;5031175;28;20823;-66
2023/07/05 10:14:21;;;;;;;9.32;4.97;;;;;;;;;;5031194;28;20045;-66
2023/07/05 10:17:07;;;;;;;10.95;5.35;;;;;;;;;;5029869;28;20231;-66
2023/07/05 10:19:39;;;;;;;9.38;5.25;;;;;;;;;;5030993;28;20063;-66
2023/07/05 10:22:14;;;;;;;10.13;5.82;;;;;;;;;;5029656;28;20110;-67
2023/07/05 10:24:50;;;;;;;10.43;5.50;;;;;;;;;;5031327;28;20096;-67
2023/07/05 10:27:38;;;;;;;9.23;5.82;;;;;;;;;;5030333;28;20033;-67
2023/07/05 10:30:15;;;;;;;9.65;5.38;;;;;;;;;;5027992;28;20056;-67
2023/07/05 10:32:43;;;;;;;10.23;5.65;;;;;;;;;;5026958;28;20045;-65
2023/07/05 10:35:19;;;;;;;8.75;5.20;;;;;;;;;;5042740;28;20119;-66
2023/07/05 10:37:45;;;;;;;10.13;5.47;;;;;;;;;;5027446;28;20094;-66
2023/07/05 10:40:12;;;;;;;11.95;5.85;;;;;;;;;;5030371;28;20041;-66
2023/07/05 10:42:40;;;;;;;20.23;5.65;;;;;;;;;;5030278;28;20044;-66
2023/07/05 10:45:13;;;;;;;10.57;5.50;;;;;;;;;;5030336;28;20048;-64
2023/07/05 10:47:40;;;;;;;11.45;5.60;;;;;;;;;;5027336;28;20808;-67
2023/07/05 10:50:09;;;;;;;12.45;5.97;;;;;;;;;;5029056;28;20597;-66
2023/07/05 10:52:36;;;;;;;10.63;5.80;;;;;;;;;;5026156;28;20041;-65
2023/07/05 10:55:10;;;;;;;11.50;5.88;;;;;;;;;;5028384;28;20699;-65
2023/07/05 10:57:36;;;;;;;11.05;5.55;;;;;;;;;;5027295;28;20067;-66
2023/07/05 11:00:18;;;;;;;10.63;5.03;;;;;;;;;;5028857;28;20045;-65
2023/07/05 11:02:56;;;;;;;11.45;5.80;;;;;;;;;;5027110;28;20025;-66
2023/07/05 11:05:30;;;;;;;9.82;5.40;;;;;;;;;;5026138;28;20186;-65
2023/07/05 11:07:59;;;;;;;10.68;6.22;;;;;;;;;;5023209;28;20041;-66
2023/07/05 11:10:27;;;;;;;12.15;6.30;;;;;;;;;;5026533;28;20479;-67
2023/07/05 11:12:54;;;;;;;13.23;5.90;;;;;;;;;;5026037;28;20132;-66
2023/07/05 11:15:22;;;;;;;11.27;5.75;;;;;;;;;;5040244;28;20055;-64
2023/07/05 11:17:49;;;;;;;11.82;5.57;;;;;;;;;;5038439;28;20048;-67
2023/07/05 11:20:34;;;;;;;12.82;5.28;;;;;;;;;;5022726;28;20406;-64
2023/07/05 11:23:00;;;;;;;11.45;5.70;;;;;;;;;;5026444;28;20048;-66
2023/07/05 11:25:45;;;;;;;11.13;6.00;;;;;;;;;;5026869;28;20422;-65
2023/07/05 11:28:31;;;;;;;11.60;6.32;;;;;;;;;;5027042;28;20041;-65
2023/07/05 11:30:58;;;;;;;13.48;6.38;;;;;;;;;;5028894;28;20045;-66
2023/07/05 11:33:25;;;;;;;11.32;6.30;;;;;;;;;;5042623;28;20549;-65
2023/07/05 11:35:56;;;;;;;12.63;6.07;;;;;;;;;;5027060;28;20045;-68
2023/07/05 11:38:40;;;;;;;11.75;6.45;;;;;;;;;;5028786;28;20036;-66
2023/07/05 11:41:25;;;;;;;13.98;5.97;;;;;;;;;;5043859;28;20068;-66
2023/07/05 11:43:56;;;;;;;11.18;5.85;;;;;;;;;;5043818;28;20385;-67
2023/07/05 11:46:40;;;;;;;11.77;6.20;;;;;;;;;;5026698;28;20553;-65
2023/07/05 11:49:22;;;;;;;14.07;6.15;;;;;;;;;;5027992;28;20079;-64
2023/07/05 11:51:50;;;;;;;12.75;6.28;;;;;;;;;;5026743;28;20048;-66
2023/07/05 11:54:19;;;;;;;13.57;6.43;;;;;;;;;;5026398;28;20893;-67
2023/07/05 11:56:46;;;;;;;9.85;5.70;;;;;;;;;;5025604;28;20497;-66
2023/07/05 11:59:15;;;;;;;11.30;5.88;;;;;;;;;;5027670;28;20084;-66
2023/07/05 12:01:41;;;;;;;15.63;6.68;;;;;;;;;;5024936;28;20037;-67
2023/07/05 12:04:12;;;;;;;10.48;5.97;;;;;;;;;;5027291;28;20156;-67
2023/07/05 12:06:40;;;;;;;13.45;5.72;;;;;;;;;;5038295;28;20123;-65
2023/07/05 12:09:12;;;;;;;11.27;5.85;;;;;;;;;;5022718;28;20091;-65
2023/07/05 12:11:40;;;;;;;12.05;6.20;;;;;;;;;;5020771;28;20052;-66
2023/07/05 12:14:11;;;;;;;11.75;5.55;;;;;;;;;;5037593;28;20116;-67
2023/07/05 12:16:38;;;;;;;12.70;5.43;;;;;;;;;;5029810;28;20052;-64
2023/07/05 12:19:11;;;;;;;11.80;6.15;;;;;;;;;;5048834;28;20055;-64
2023/07/05 12:21:39;;;;;;;11.60;5.43;;;;;;;;;;5029850;28;20041;-63
2023/07/05 12:24:07;;;;;;;10.95;6.28;;;;;;;;;;5047356;28;20098;-64
2023/07/05 12:26:35;;;;;;;16.35;6.32;;;;;;;;;;5030821;28;20047;-64
2023/07/05 12:29:03;;;;;;;13.32;5.63;;;;;;;;;;5032046;28;20148;-66
2023/07/05 12:31:30;;;;;;;13.38;5.85;;;;;;;;;;5033156;28;20047;-65
2023/07/05 12:33:58;;;;;;;9.93;5.78;;;;;;;;;;5029883;28;20055;-64
2023/07/05 12:36:25;;;;;;;9.70;5.88;;;;;;;;;;5028719;28;20575;-66
2023/07/05 12:39:05;;;;;;;11.27;6.00;;;;;;;;;;5030172;28;20622;-66
2023/07/05 12:41:32;;;;;;;11.73;5.80;;;;;;;;;;5044564;28;20556;-67
2023/07/05 12:44:04;;;;;;;13.43;5.88;;;;;;;;;;5042002;28;20048;-64
2023/07/05 12:46:32;;;;;;;12.20;6.07;;;;;;;;;;5028774;28;20132;-64
2023/07/05 12:49:20;;;;;;;10.13;5.65;;;;;;;;;;5029272;28;20084;-64
2023/07/05 12:51:48;;;;;;;12.02;6.15;;;;;;;;;;5028522;28;20051;-63
2023/07/05 12:54:15;;;;;;;12.65;5.93;;;;;;;;;;5032485;28;20041;-65
2023/07/05 12:56:45;;;;;;;10.25;5.45;;;;;;;;;;5027450;28;20040;-65
2023/07/05 12:59:35;;;;;;;13.43;5.85;;;;;;;;;;5028451;28;20066;-64
2023/07/05 13:02:03;;;;;;;9.38;5.50;;;;;;;;;;5026479;28;20203;-65
2023/07/05 13:04:29;;;;;;;11.95;5.78;;;;;;;;;;5043112;28;20044;-64
2023/07/05 13:06:57;;;;;;;10.15;5.50;;;;;;;;;;5026838;28;20045;-64
2023/07/05 13:09:44;;;;;;;10.85;5.35;;;;;;;;;;5041346;28;20053;-66
2023/07/05 13:12:10;;;;;;;19.02;5.50;;;;;;;;;;5028253;28;20041;-64
2023/07/05 13:14:39;;;;;;;10.52;5.45;;;;;;;;;;5028246;28;20124;-63
2023/07/05 13:17:12;;;;;;;11.13;5.38;;;;;;;;;;5027343;28;20041;-65
2023/07/05 13:20:00;;;;;;;9.57;5.53;;;;;;;;;;5027610;28;20053;-64
2023/07/05 13:22:28;;;;;;;12.23;5.07;;;;;;;;;;5028166;28;20126;-65
2023/07/05 13:24:56;;;;;;;10.02;5.13;;;;;;;;;;5029200;28;20127;-66
2023/07/05 13:27:26;;;;;;;10.30;5.47;;;;;;;;;;5027748;28;20953;-65
2023/07/05 13:30:12;;;;;;;11.48;4.78;;;;;;;;;;5043137;28;20091;-65
2023/07/05 13:32:40;;;;;;;9.73;4.85;;;;;;;;;;5047390;28;20056;-65
2023/07/05 13:35:06;;;;;;;12.45;5.03;;;;;;;;;;5046451;28;20049;-65
2023/07/05 13:37:33;;;;;;;9.82;4.60;;;;;;;;;;5040721;28;20047;-65
2023/07/05 13:40:10;;;;;;;8.95;4.35;;;;;;;;;;5042541;28;20035;-65
2023/07/05 13:42:38;;;;;;;9.98;4.20;;;;;;;;;;5026828;28;20436;-65
2023/07/05 13:45:10;;;;;;;11.65;5.35;;;;;;;;;;5033234;28;20436;-66
2023/07/05 13:47:37;;;;;;;14.48;5.00;;;;;;;;;;5027490;28;20043;-64
2023/07/05 13:50:05;;;;;;;8.45;4.32;;;;;;;;;;5045483;28;22666;-67
2023/07/05 13:52:32;;;;;;;9.57;5.13;;;;;;;;;;5042383;28;20036;-64
2023/07/05 13:54:59;;;;;;;10.90;4.40;;;;;;;;;;5040457;28;20039;-65
2023/07/05 13:57:25;;;;;;;9.30;4.65;;;;;;;;;;5041361;28;20387;-66
2023/07/05 13:59:52;;;;;;;11.23;5.53;;;;;;;;;;5043888;28;20749;-65
2023/07/05 14:02:26;;;;;;;9.93;4.70;;;;;;;;;;5029269;28;20044;-65
2023/07/05 14:04:53;;;;;;;8.95;4.65;;;;;;;;;;5028507;28;20141;-65
2023/07/05 14:07:21;;;;;;;12.15;4.13;;;;;;;;;;5043254;28;20058;-65
2023/07/05 14:09:47;;;;;;;9.27;4.15;;;;;;;;;;5041590;28;20056;-65
2023/07/05 14:12:15;;;;;;;9.45;4.03;;;;;;;;;;5028279;28;20075;-65
2023/07/05 14:14:42;;;;;;;13.50;4.35;;;;;;;;;;5031115;28;20188;-65
2023/07/05 14:17:16;;;;;;;11.70;4.20;;;;;;;;;;5027795;28;20041;-65
2023/07/05 14:19:43;;;;;;;9.68;3.65;;;;;;;;;;5026393;28;20081;-65
2023/07/05 14:22:13;;;;;;;12.27;4.25;;;;;;;;;;5029171;28;20056;-64
2023/07/05 14:24:40;;;;;;;11.02;5.35;;;;;;;;;;5027853;28;20045;-63
2023/07/05 14:27:11;;;;;;;10.30;5.10;;;;;;;;;;5027225;28;20048;-65
2023/07/05 14:29:38;;;;;;;10.82;4.43;;;;;;;;;;5041010;28;20053;-64
2023/07/05 14:32:05;;;;;;;8.88;4.28;;;;;;;;;;5042574;28;20051;-65
2023/07/05 14:34:31;;;;;;;8.43;3.95;;;;;;;;;;5043855;28;20044;-64
2023/07/05 14:36:58;;;;;;;8.98;3.72;;;;;;;;;;5030386;28;20063;-63
2023/07/05 14:39:25;;;;;;;7.03;3.65;;;;;;;;;;5029660;28;20047;-64
2023/07/05 14:41:51;;;;;;;8.55;3.53;;;;;;;;;;5029717;28;20752;-65
2023/07/05 14:44:18;;;;;;;7.53;3.78;;;;;;;;;;5028963;28;20044;-64
2023/07/05 14:46:45;;;;;;;12.63;3.70;;;;;;;;;;5025161;28;20106;-64
2023/07/05 14:49:13;;;;;;;8.27;3.40;;;;;;;;;;5029321;28;20112;-64